Percy, Mississippi
Current Conditions -  °F | °C
As of 3:53 PM on Monday 20 Oct 2014 (Local Time) from KGLH Reporting Station
Clear Clear  
Wind Chill: 74°   Ceiling: Unl
Heat Index: 74°   Visibility: 10mi
Dew Point: 49°   Wind: 9mph
Humidity: 41%   Direction: 310°NW
Pressure: 30.03"   Gusts: NA
Location:  33.1785°N, 90.8086°W
Report Text: KGLH 202053Z AUTO 31008KT 10SM CLR 23/09 A3003 RMK AO2 SLP175 T02330094 56016
Loading
Personal Weather Stations






























Interactive Weather Map
Tropical Storm Tracking
New forecast layout! Learn more

10-Day Weather Forecast

Advertisements
Track Severe Weather on mobile